Time;durP1;ratioP1;P1;durP2;ratioP2;P2;SDS_P1;SDS_P2;PMS_P1;PMS_P2;Temp;Humidity;BMP_temperature;BMP_pressure;BME280_temperature;BME280_humidity;BME280_pressure;Samples;Min_cycle;Max_cycle;Signal;HPM_P1;HPM_P2
2022/03/17 05:01:38;;;;;;;32.80;23.80;;;9.00;99.90;;;;;;5436510;23;20493;-76
2022/03/17 05:04:05;;;;;;;39.50;27.00;;;9.00;99.90;;;;;;4953500;28;20516;-76
2022/03/17 05:06:32;;;;;;;37.83;26.27;;;9.00;99.90;;;;;;4953197;29;20475;-76
2022/03/17 05:08:59;;;;;;;33.13;23.97;;;9.00;99.90;;;;;;4953445;29;20549;-75
2022/03/17 05:11:26;;;;;;;35.13;25.37;;;9.00;99.90;;;;;;4943379;28;21005;-77
2022/03/17 05:13:53;;;;;;;35.90;23.83;;;9.00;99.90;;;;;;4933955;29;20465;-76
2022/03/17 05:16:20;;;;;;;39.67;23.67;;;9.00;99.90;;;;;;4934725;29;20469;-77
2022/03/17 05:18:51;;;;;;;36.03;25.17;;;9.00;99.90;;;;;;4937680;29;20568;-77
2022/03/17 05:21:19;;;;;;;35.73;24.03;;;9.00;99.90;;;;;;4937331;29;20910;-77
2022/03/17 05:23:46;;;;;;;35.40;25.83;;;9.00;99.90;;;;;;4937741;29;20501;-77
2022/03/17 05:26:12;;;;;;;35.90;25.27;;;9.00;99.90;;;;;;4937369;29;20481;-77
2022/03/17 05:28:39;;;;;;;37.37;25.43;;;9.00;99.90;;;;;;4937701;29;20666;-77
2022/03/17 05:31:06;;;;;;;40.50;26.80;;;8.90;99.90;;;;;;4937616;29;20477;-77
2022/03/17 05:33:33;;;;;;;37.33;24.57;;;8.90;99.90;;;;;;4937690;29;20514;-67
2022/03/17 05:36:05;;;;;;;36.10;25.57;;;8.90;99.90;;;;;;4937840;29;20528;-69
2022/03/17 05:38:32;;;;;;;36.13;24.87;;;8.80;99.90;;;;;;4937265;29;20519;-67
2022/03/17 05:41:00;;;;;;;35.97;24.63;;;8.80;99.90;;;;;;4937103;29;20858;-67
2022/03/17 05:43:27;;;;;;;35.03;24.67;;;8.80;99.90;;;;;;4937487;29;20842;-67
2022/03/17 05:45:53;;;;;;;34.10;24.30;;;8.80;99.90;;;;;;4937272;29;20545;-67
2022/03/17 05:48:20;;;;;;;36.77;26.10;;;8.80;99.90;;;;;;4937353;29;20545;-75
2022/03/17 05:50:47;;;;;;;35.50;24.30;;;8.80;99.90;;;;;;4937233;29;20538;-75
2022/03/17 05:53:15;;;;;;;38.30;25.63;;;8.80;99.90;;;;;;4937081;29;20466;-76
2022/03/17 05:55:42;;;;;;;38.53;24.60;;;8.80;99.90;;;;;;4937179;29;20462;-76
2022/03/17 05:58:09;;;;;;;38.90;24.77;;;8.90;99.90;;;;;;4936874;29;20476;-76
2022/03/17 06:00:36;;;;;;;36.67;25.40;;;8.90;99.90;;;;;;4936994;29;20509;-75
2022/03/17 06:03:05;;;;;;;40.83;26.60;;;8.90;99.90;;;;;;4936932;29;20459;-75
2022/03/17 06:05:32;;;;;;;36.13;25.63;;;8.90;99.90;;;;;;4936653;29;20821;-75
2022/03/17 06:08:00;;;;;;;37.10;25.70;;;8.90;99.90;;;;;;4936077;29;21123;-75
2022/03/17 06:10:32;;;;;;;35.30;24.80;;;8.90;99.90;;;;;;4936911;29;20502;-75
2022/03/17 06:13:00;;;;;;;33.17;24.57;;;8.90;99.90;;;;;;4936707;29;20470;-75
2022/03/17 06:15:27;;;;;;;37.57;24.40;;;8.90;99.90;;;;;;4936679;29;20977;-75
2022/03/17 06:17:55;;;;;;;37.93;25.30;;;8.90;99.90;;;;;;4935531;29;20462;-76
2022/03/17 06:20:23;;;;;;;38.90;25.93;;;8.90;99.90;;;;;;4936103;29;20500;-76
2022/03/17 06:22:52;;;;;;;33.40;24.50;;;8.90;99.90;;;;;;4936555;29;20537;-75
2022/03/17 06:25:21;;;;;;;41.13;25.80;;;8.90;99.90;;;;;;4936038;29;20481;-76
2022/03/17 06:27:50;;;;;;;36.67;24.50;;;8.90;99.90;;;;;;4935948;29;20529;-75
2022/03/17 06:30:18;;;;;;;36.47;25.20;;;8.90;99.90;;;;;;4935894;29;20461;-76
2022/03/17 06:32:46;;;;;;;38.33;25.93;;;8.90;99.90;;;;;;4936370;29;20903;-76
2022/03/17 06:35:17;;;;;;;43.63;26.80;;;8.90;99.90;;;;;;4936672;29;20560;-76
2022/03/17 06:37:44;;;;;;;36.57;25.70;;;9.00;99.90;;;;;;4936335;29;20446;-74
2022/03/17 06:40:12;;;;;;;35.53;25.63;;;9.00;99.90;;;;;;4936468;29;20610;-76
2022/03/17 06:42:40;;;;;;;37.57;25.87;;;9.00;99.90;;;;;;4936112;29;20951;-75
2022/03/17 06:45:09;;;;;;;35.50;24.90;;;9.10;99.90;;;;;;4935495;29;20921;-75
2022/03/17 06:47:36;;;;;;;40.27;27.83;;;9.00;99.90;;;;;;4935312;29;20493;-75
2022/03/17 06:50:04;;;;;;;36.47;24.37;;;9.10;99.90;;;;;;4936013;29;20459;-75
2022/03/17 06:52:31;;;;;;;35.93;25.20;;;9.10;99.90;;;;;;4935926;29;20913;-76
2022/03/17 06:54:58;;;;;;;41.60;27.43;;;9.10;99.90;;;;;;4936021;29;20537;-75
2022/03/17 06:57:25;;;;;;;36.77;25.40;;;9.10;99.90;;;;;;4935717;29;20833;-75
2022/03/17 06:59:52;;;;;;;39.17;26.77;;;9.10;99.90;;;;;;4935694;29;21018;-75
2022/03/17 07:02:20;;;;;;;37.83;26.00;;;9.10;99.90;;;;;;4936051;29;20488;-75
2022/03/17 07:04:47;;;;;;;33.53;24.17;;;9.00;99.90;;;;;;4936009;29;20537;-75
2022/03/17 07:07:14;;;;;;;39.77;25.20;;;9.00;99.90;;;;;;4935390;29;20549;-75
2022/03/17 07:09:42;;;;;;;41.50;26.30;;;9.00;99.90;;;;;;4935828;29;20454;-75
2022/03/17 07:12:10;;;;;;;42.90;26.23;;;9.00;99.90;;;;;;4935544;29;20485;-75
2022/03/17 07:14:37;;;;;;;36.57;24.73;;;9.10;99.90;;;;;;4935328;29;20455;-75
2022/03/17 07:17:04;;;;;;;36.13;25.30;;;9.10;99.90;;;;;;4935208;29;20454;-75
2022/03/17 07:19:33;;;;;;;32.63;23.90;;;9.10;99.90;;;;;;4935022;29;20481;-76
2022/03/17 07:22:00;;;;;;;39.10;25.93;;;9.10;99.90;;;;;;4940451;29;20501;-75
2022/03/17 07:24:27;;;;;;;34.97;24.23;;;9.10;99.90;;;;;;4933008;29;20553;-76
2022/03/17 07:26:53;;;;;;;35.07;23.73;;;9.20;99.90;;;;;;4935502;29;20458;-76
2022/03/17 07:29:20;;;;;;;34.63;25.13;;;9.20;99.90;;;;;;4949463;29;20541;-76
2022/03/17 07:31:47;;;;;;;36.10;25.67;;;9.30;99.90;;;;;;4954476;28;20475;-76
2022/03/17 07:34:14;;;;;;;37.03;25.10;;;9.30;99.90;;;;;;4948839;28;20457;-76
2022/03/17 07:36:44;;;;;;;36.93;25.53;;;9.30;99.90;;;;;;4948566;29;20450;-76
2022/03/17 07:39:11;;;;;;;40.90;26.70;;;9.40;99.90;;;;;;4954364;29;20457;-76
2022/03/17 07:41:38;;;;;;;35.77;26.20;;;9.40;99.90;;;;;;4954016;28;20922;-76
2022/03/17 07:44:05;;;;;;;38.10;26.30;;;9.50;99.90;;;;;;4946941;28;21033;-76
2022/03/17 07:46:32;;;;;;;38.07;26.37;;;9.50;99.90;;;;;;4942302;28;21038;-76
2022/03/17 07:48:59;;;;;;;39.73;27.20;;;9.50;99.90;;;;;;4934307;29;20934;-77
2022/03/17 07:51:26;;;;;;;37.57;25.67;;;9.60;99.90;;;;;;4934040;29;20561;-76
2022/03/17 07:53:54;;;;;;;40.90;26.10;;;9.60;99.90;;;;;;4933633;29;20454;-76
2022/03/17 07:56:21;;;;;;;36.20;25.63;;;9.60;99.90;;;;;;4933371;29;20465;-76
2022/03/17 07:58:48;;;;;;;36.80;25.33;;;9.60;99.90;;;;;;4933843;29;20486;-78
2022/03/17 08:01:15;;;;;;;37.00;26.20;;;9.70;99.90;;;;;;4933606;29;20587;-75
2022/03/17 08:03:42;;;;;;;42.73;27.30;;;9.60;99.90;;;;;;4934071;29;20959;-75
2022/03/17 08:06:10;;;;;;;38.90;24.77;;;9.60;99.90;;;;;;4934729;29;20916;-75
2022/03/17 08:08:37;;;;;;;38.57;26.07;;;9.70;99.90;;;;;;4934533;29;20462;-75
2022/03/17 08:11:05;;;;;;;41.60;25.50;;;9.70;99.90;;;;;;4934572;29;20857;-75
2022/03/17 08:13:32;;;;;;;37.93;25.20;;;9.70;99.90;;;;;;4934893;29;20482;-75
2022/03/17 08:15:59;;;;;;;37.80;25.87;;;9.80;99.90;;;;;;4934830;29;20458;-75
2022/03/17 08:18:26;;;;;;;41.40;26.73;;;9.80;99.90;;;;;;4934452;29;20462;-75
2022/03/17 08:20:53;;;;;;;36.63;25.97;;;9.80;99.90;;;;;;4934492;29;20508;-75
2022/03/17 08:23:21;;;;;;;38.00;26.60;;;9.80;99.90;;;;;;4934380;29;20544;-75
2022/03/17 08:25:49;;;;;;;37.73;26.47;;;9.90;99.90;;;;;;4934714;29;20462;-75
2022/03/17 08:28:18;;;;;;;37.10;27.33;;;9.90;99.90;;;;;;4934310;29;20455;-75
2022/03/17 08:30:47;;;;;;;38.10;26.97;;;9.90;99.90;;;;;;4934427;29;21029;-75
2022/03/17 08:33:14;;;;;;;42.57;27.23;;;10.00;99.90;;;;;;4935025;29;20477;-75
2022/03/17 08:35:42;;;;;;;39.30;26.77;;;10.00;99.90;;;;;;4934425;29;20486;-75
2022/03/17 08:38:09;;;;;;;33.93;24.70;;;10.00;99.90;;;;;;4934425;29;20548;-75
2022/03/17 08:40:38;;;;;;;38.00;26.77;;;10.00;99.90;;;;;;4934302;29;20516;-75
2022/03/17 08:43:06;;;;;;;38.57;26.00;;;10.10;99.90;;;;;;4934449;29;20955;-75
2022/03/17 08:51:02;;;;;;;38.60;26.10;;;10.20;99.90;;;;;;4934379;29;20454;-75
2022/03/17 08:53:29;;;;;;;35.13;25.07;;;10.20;99.90;;;;;;4937496;29;20899;-75
2022/03/17 08:55:57;;;;;;;35.27;25.90;;;10.20;99.90;;;;;;4938285;29;20493;-75
2022/03/17 08:58:25;;;;;;;38.03;26.67;;;10.20;99.90;;;;;;4937818;29;20544;-75
2022/03/17 09:00:54;;;;;;;40.63;26.07;;;10.20;99.90;;;;;;4937706;29;20497;-75
2022/03/17 09:03:21;;;;;;;36.57;27.13;;;10.20;99.90;;;;;;4937887;29;20838;-75
2022/03/17 09:05:48;;;;;;;35.93;25.70;;;10.30;99.90;;;;;;4938110;29;20939;-76
2022/03/17 09:08:14;;;;;;;37.33;26.10;;;10.30;99.90;;;;;;4937690;29;20458;-75
2022/03/17 09:10:41;;;;;;;34.73;24.73;;;10.30;99.90;;;;;;4937856;29;20473;-75
2022/03/17 09:13:09;;;;;;;34.13;25.00;;;10.30;99.90;;;;;;4937922;29;20497;-75
2022/03/17 09:15:38;;;;;;;40.63;27.77;;;10.30;99.90;;;;;;4938075;29;20493;-77
2022/03/17 09:18:08;;;;;;;40.07;27.77;;;10.40;99.90;;;;;;4937788;29;20458;-75
2022/03/17 09:20:35;;;;;;;41.20;28.60;;;10.30;99.90;;;;;;4937638;29;20482;-75
2022/03/17 09:23:02;;;;;;;40.43;26.40;;;10.30;99.90;;;;;;4937585;29;20462;-75
2022/03/17 09:25:30;;;;;;;40.30;25.60;;;10.30;99.90;;;;;;4937732;29;20473;-75
2022/03/17 09:27:57;;;;;;;37.00;26.00;;;10.40;99.90;;;;;;4937272;29;20973;-75
2022/03/17 09:30:25;;;;;;;40.67;25.73;;;10.40;99.90;;;;;;4937693;29;20460;-75
2022/03/17 09:32:54;;;;;;;40.43;27.90;;;10.40;99.90;;;;;;4937781;29;20450;-75
2022/03/17 09:35:23;;;;;;;42.57;28.37;;;10.40;99.90;;;;;;4937480;29;20462;-75
2022/03/17 09:37:50;;;;;;;41.30;28.50;;;10.40;99.90;;;;;;4937141;29;20461;-76
2022/03/17 09:40:17;;;;;;;38.40;27.27;;;10.40;99.90;;;;;;4937413;29;20464;-75
2022/03/17 09:42:44;;;;;;;37.37;26.13;;;10.50;99.90;;;;;;4937417;29;20533;-75
2022/03/17 09:45:12;;;;;;;42.90;26.97;;;10.60;99.90;;;;;;4937827;29;20456;-75
2022/03/17 09:47:41;;;;;;;44.40;28.57;;;10.70;99.90;;;;;;4937563;29;20489;-75
2022/03/17 09:50:11;;;;;;;38.90;28.17;;;10.60;99.90;;;;;;4937665;29;20454;-75
2022/03/17 09:52:41;;;;;;;41.17;27.20;;;10.60;99.90;;;;;;4937585;29;20455;-75
2022/03/17 09:55:10;;;;;;;39.40;27.40;;;10.60;99.90;;;;;;4937330;29;20549;-76
2022/03/17 09:57:38;;;;;;;41.40;26.90;;;10.70;99.90;;;;;;4937217;29;20486;-75
2022/03/17 10:00:06;;;;;;;37.13;27.37;;;10.70;99.90;;;;;;4937199;29;20505;-76
2022/03/17 10:02:33;;;;;;;37.60;26.53;;;10.80;99.90;;;;;;4936751;29;20497;-75
2022/03/17 10:05:00;;;;;;;40.10;27.93;;;10.90;99.90;;;;;;4935887;29;20529;-76
2022/03/17 10:07:28;;;;;;;39.33;27.50;;;10.90;99.90;;;;;;4936434;29;20461;-74
2022/03/17 10:09:56;;;;;;;41.90;28.87;;;10.90;99.90;;;;;;4937116;29;20486;-76
2022/03/17 10:12:23;;;;;;;40.03;27.40;;;10.90;99.90;;;;;;4936887;29;20553;-76
2022/03/17 10:14:52;;;;;;;39.10;27.33;;;11.00;99.90;;;;;;4936998;29;20460;-75
2022/03/17 10:17:31;;;;;;;43.10;27.97;;;11.00;99.90;;;;;;4936528;29;20498;-75
2022/03/17 10:20:12;;;;;;;37.00;26.90;;;11.10;99.90;;;;;;4936773;29;20458;-75
2022/03/17 10:22:42;;;;;;;36.50;25.63;;;11.10;99.90;;;;;;4936749;29;20502;-75
2022/03/17 10:25:12;;;;;;;42.97;27.37;;;11.20;99.90;;;;;;4936919;29;20971;-75
2022/03/17 10:27:40;;;;;;;39.00;27.43;;;11.20;99.90;;;;;;4936422;29;20502;-76
2022/03/17 10:30:08;;;;;;;40.27;27.67;;;11.20;99.90;;;;;;4936595;29;20462;-76
2022/03/17 10:32:36;;;;;;;39.37;26.70;;;11.10;99.90;;;;;;4935986;29;20484;-74
2022/03/17 10:35:04;;;;;;;39.33;27.50;;;11.10;99.90;;;;;;4935671;29;20450;-74
2022/03/17 10:37:36;;;;;;;45.43;26.63;;;11.10;99.90;;;;;;4935115;29;20486;-74
2022/03/17 10:40:10;;;;;;;36.80;26.80;;;11.10;99.90;;;;;;4935583;29;20454;-74
2022/03/17 10:42:39;;;;;;;37.93;25.13;;;11.10;99.90;;;;;;4935206;29;21014;-75
2022/03/17 10:45:08;;;;;;;43.30;26.70;;;11.20;99.90;;;;;;4935175;29;20458;-74
2022/03/17 10:47:36;;;;;;;41.30;27.67;;;11.30;99.90;;;;;;4934923;29;20549;-75
2022/03/17 10:50:09;;;;;;;40.73;28.67;;;11.30;99.90;;;;;;4935391;29;20489;-75
2022/03/17 10:52:51;;;;;;;46.67;27.57;;;11.30;99.90;;;;;;4935145;29;20462;-75
2022/03/17 10:55:23;;;;;;;41.83;27.37;;;11.40;99.90;;;;;;4935055;29;20462;-75
2022/03/17 10:57:53;;;;;;;39.67;27.43;;;11.40;99.90;;;;;;4935019;29;20553;-75
2022/03/17 11:00:22;;;;;;;39.07;28.40;;;11.40;99.90;;;;;;4934904;29;20478;-74
2022/03/17 11:02:51;;;;;;;40.80;26.50;;;11.50;99.90;;;;;;4935008;29;20577;-74
2022/03/17 11:05:19;;;;;;;44.80;27.83;;;11.30;99.90;;;;;;4934891;29;20545;-74
2022/03/17 11:07:47;;;;;;;39.57;27.40;;;11.30;99.90;;;;;;4934657;29;20931;-74
2022/03/17 11:10:16;;;;;;;38.10;26.87;;;11.40;99.90;;;;;;4934618;29;21215;-74
2022/03/17 11:12:43;;;;;;;40.70;27.40;;;11.40;99.90;;;;;;4934961;29;20454;-74
2022/03/17 11:15:11;;;;;;;36.97;25.80;;;11.50;99.90;;;;;;4967104;23;20499;-74
2022/03/17 11:17:42;;;;;;;39.23;27.27;;;11.40;99.90;;;;;;4992383;28;20969;-76
2022/03/17 11:20:12;;;;;;;39.67;26.80;;;11.40;99.90;;;;;;4992725;28;20534;-76
2022/03/17 11:22:39;;;;;;;37.63;27.37;;;11.40;99.90;;;;;;4992618;28;20491;-76
2022/03/17 11:25:23;;;;;;;39.73;27.23;;;11.50;99.90;;;;;;4993374;28;20987;-76
2022/03/17 11:27:51;;;;;;;38.33;27.83;;;11.40;99.90;;;;;;4993669;28;20480;-76
2022/03/17 11:30:21;;;;;;;46.73;26.57;;;11.50;99.90;;;;;;4993511;28;20450;-76
2022/03/17 11:32:54;;;;;;;40.10;26.90;;;11.60;99.90;;;;;;4993570;28;20539;-76
2022/03/17 11:35:22;;;;;;;38.93;26.40;;;11.60;99.90;;;;;;4993250;28;20479;-76
2022/03/17 11:37:49;;;;;;;43.33;27.87;;;11.70;99.90;;;;;;4993221;28;20456;-76
2022/03/17 11:40:19;;;;;;;42.37;27.70;;;11.80;99.90;;;;;;4993637;28;20583;-76
2022/03/17 11:42:52;;;;;;;44.53;28.33;;;11.80;99.90;;;;;;4993019;28;20506;-76
2022/03/17 11:45:42;;;;;;;39.00;28.00;;;11.80;99.90;;;;;;4992889;28;20476;-76
2022/03/17 11:48:12;;;;;;;40.07;27.53;;;11.70;99.90;;;;;;4993168;28;20460;-76
2022/03/17 11:50:48;;;;;;;42.57;27.57;;;11.70;99.90;;;;;;4992850;28;20816;-77
2022/03/17 11:53:24;;;;;;;42.80;28.97;;;11.60;99.90;;;;;;4993073;28;20513;-76
2022/03/17 11:55:56;;;;;;;39.40;27.70;;;11.70;99.90;;;;;;4992710;28;21240;-76
2022/03/17 11:58:30;;;;;;;43.47;27.57;;;11.70;99.90;;;;;;4992844;28;20537;-76
2022/03/17 12:01:09;;;;;;;36.47;26.10;;;11.70;99.90;;;;;;4993440;28;20991;-76
2022/03/17 12:03:38;;;;;;;41.03;27.70;;;11.80;99.90;;;;;;4992712;28;20462;-75
2022/03/17 12:06:09;;;;;;;42.47;26.93;;;11.80;99.90;;;;;;4992647;28;20559;-76
2022/03/17 12:08:37;;;;;;;36.10;27.10;;;11.80;99.90;;;;;;4992661;28;20457;-76
2022/03/17 12:11:06;;;;;;;41.67;28.43;;;11.70;99.90;;;;;;4992677;28;20451;-76
2022/03/17 12:13:35;;;;;;;40.33;28.60;;;11.80;99.90;;;;;;4992705;28;20460;-75
2022/03/17 12:16:06;;;;;;;38.20;27.00;;;11.80;99.90;;;;;;4989321;28;20495;-76
2022/03/17 12:19:00;;;;;;;43.73;28.10;;;11.90;99.90;;;;;;4976873;28;20470;-77
2022/03/17 12:22:00;;;;;;;39.33;28.83;;;11.90;99.90;;;;;;4972559;28;20461;-76
2022/03/17 12:24:34;;;;;;;41.57;28.53;;;11.80;99.90;;;;;;4971176;28;20461;-76
2022/03/17 12:27:06;;;;;;;41.60;29.30;;;11.80;99.90;;;;;;4971934;28;20433;-76
2022/03/17 12:29:33;;;;;;;44.80;29.80;;;11.90;99.90;;;;;;4972386;28;20515;-76
2022/03/17 12:32:10;;;;;;;51.90;30.03;;;11.80;99.90;;;;;;4971994;28;20824;-76
2022/03/17 12:34:38;;;;;;;42.00;29.13;;;11.80;99.90;;;;;;4971900;28;20512;-76
2022/03/17 12:37:07;;;;;;;46.27;29.53;;;11.80;99.90;;;;;;4972026;28;20613;-76
2022/03/17 12:39:35;;;;;;;42.90;29.70;;;11.80;99.90;;;;;;4971823;28;20532;-76
2022/03/17 12:42:12;;;;;;;44.40;29.60;;;11.80;99.90;;;;;;4971943;28;20874;-75
2022/03/17 12:44:48;;;;;;;41.27;29.87;;;11.70;99.90;;;;;;4987155;28;20486;-75
2022/03/17 12:47:16;;;;;;;53.43;30.53;;;11.80;99.90;;;;;;5010845;28;20490;-75
2022/03/17 12:49:43;;;;;;;44.07;29.83;;;11.80;99.90;;;;;;5010642;28;20458;-75
2022/03/17 12:52:17;;;;;;;43.70;31.03;;;11.70;99.90;;;;;;5010612;28;20541;-76
2022/03/17 12:54:45;;;;;;;49.00;29.80;;;11.70;99.90;;;;;;5011288;28;20501;-76
2022/03/17 12:57:12;;;;;;;45.33;30.97;;;11.70;99.90;;;;;;5010908;28;20486;-76
2022/03/17 12:59:39;;;;;;;43.40;30.20;;;11.80;99.90;;;;;;5011000;28;20542;-77
2022/03/17 13:02:07;;;;;;;43.20;29.03;;;11.90;99.90;;;;;;5010742;28;20589;-76
2022/03/17 13:04:40;;;;;;;41.20;28.80;;;12.00;99.90;;;;;;5010514;28;20450;-76
2022/03/17 13:07:07;;;;;;;46.10;29.50;;;12.00;99.90;;;;;;5011331;28;20486;-75
2022/03/17 13:09:34;;;;;;;50.50;27.70;;;12.00;99.90;;;;;;5011956;28;20454;-76
2022/03/17 13:14:53;;;;;;;37.97;26.60;;;12.10;99.90;;;;;;5011793;28;21021;-76
2022/03/17 13:17:36;;;;;;;40.23;26.87;;;12.20;99.90;;;;;;5011572;28;20505;-77
2022/03/17 13:20:08;;;;;;;41.70;25.87;;;12.30;99.90;;;;;;5011966;28;20872;-77
2022/03/17 13:22:40;;;;;;;36.67;25.87;;;12.30;99.90;;;;;;5011441;28;20524;-77
2022/03/17 13:25:12;;;;;;;32.40;24.13;;;12.40;99.90;;;;;;5011703;28;20462;-77
2022/03/17 13:27:40;;;;;;;43.30;30.63;;;12.40;99.90;;;;;;5011244;28;21022;-77
2022/03/17 13:30:12;;;;;;;37.57;27.23;;;12.40;99.90;;;;;;5011899;28;20469;-77
2022/03/17 13:32:42;;;;;;;36.93;25.40;;;12.40;99.90;;;;;;5011948;28;20576;-77
2022/03/17 13:35:14;;;;;;;33.93;24.93;;;12.40;99.90;;;;;;5012206;28;20470;-77
2022/03/17 13:37:43;;;;;;;37.63;26.20;;;12.40;99.90;;;;;;5012046;28;20473;-77
2022/03/17 13:40:14;;;;;;;37.37;25.67;;;12.50;99.90;;;;;;5004901;28;20530;-77
2022/03/17 13:43:05;;;;;;;35.70;26.37;;;12.60;99.90;;;;;;4995662;28;20514;-78
2022/03/17 13:45:33;;;;;;;34.87;25.30;;;12.60;99.90;;;;;;4995395;28;20467;-77
2022/03/17 13:48:02;;;;;;;37.73;26.70;;;12.70;99.90;;;;;;4995570;28;20487;-77
2022/03/17 13:50:31;;;;;;;36.87;26.07;;;12.70;99.90;;;;;;4995685;28;20455;-77
2022/03/17 13:53:00;;;;;;;35.70;25.80;;;12.80;99.90;;;;;;4995684;28;20451;-78
2022/03/17 13:55:42;;;;;;;36.80;25.23;;;12.70;99.90;;;;;;4995835;28;20850;-77
2022/03/17 13:58:11;;;;;;;35.70;25.80;;;12.70;99.90;;;;;;4995704;28;20467;-77
2022/03/17 14:00:38;;;;;;;38.63;25.17;;;12.70;99.90;;;;;;4995524;28;20455;-77
2022/03/17 14:03:20;;;;;;;36.30;27.13;;;12.70;99.90;;;;;;4994837;28;21032;-77
2022/03/17 14:06:13;;;;;;;38.13;27.53;;;12.70;99.90;;;;;;4995623;28;20478;-78
2022/03/17 14:08:43;;;;;;;37.00;27.23;;;12.60;99.90;;;;;;4995309;28;20865;-77
2022/03/17 14:11:11;;;;;;;38.43;25.47;;;12.70;99.90;;;;;;4995637;28;20456;-77
2022/03/17 14:13:41;;;;;;;37.10;26.27;;;12.70;99.90;;;;;;4995229;28;20466;-77
2022/03/17 14:16:10;;;;;;;47.07;29.17;;;12.70;99.90;;;;;;4994760;28;20486;-78
2022/03/17 14:18:38;;;;;;;35.13;27.00;;;12.70;99.90;;;;;;4994830;28;20530;-77
2022/03/17 14:21:08;;;;;;;39.87;28.30;;;12.70;99.90;;;;;;4994858;28;20825;-77
2022/03/17 14:26:20;;;;;;;41.27;26.90;;;12.70;99.90;;;;;;4994481;28;20455;-77
2022/03/17 14:28:47;;;;;;;41.17;28.23;;;12.70;99.90;;;;;;4994672;28;20531;-77
2022/03/17 14:31:17;;;;;;;47.63;29.40;;;12.70;99.90;;;;;;4994614;28;20538;-77
2022/03/17 14:33:45;;;;;;;41.80;29.73;;;12.70;99.90;;;;;;4994484;28;20455;-77
2022/03/17 14:36:14;;;;;;;48.20;31.00;;;12.70;99.90;;;;;;4994257;28;20472;-77
2022/03/17 14:38:43;;;;;;;45.53;30.43;;;12.70;99.90;;;;;;4994164;28;20456;-77
2022/03/17 14:41:15;;;;;;;39.80;30.20;;;12.60;99.90;;;;;;4994474;28;20451;-77
2022/03/17 14:43:42;;;;;;;45.70;32.20;;;12.60;99.90;;;;;;4994298;28;20577;-77
2022/03/17 14:46:09;;;;;;;42.83;30.70;;;12.60;99.90;;;;;;4994338;28;20507;-76
2022/03/17 14:48:36;;;;;;;42.43;30.17;;;12.60;99.90;;;;;;4994044;28;20458;-77
2022/03/17 14:51:03;;;;;;;50.00;31.40;;;12.60;99.90;;;;;;4993317;28;20456;-77
2022/03/17 14:53:32;;;;;;;46.60;32.27;;;12.60;99.90;;;;;;4994262;28;20452;-76
2022/03/17 14:55:59;;;;;;;48.30;32.73;;;12.50;99.90;;;;;;4994288;28;20467;-76
2022/03/17 14:58:27;;;;;;;45.87;31.17;;;12.40;99.90;;;;;;4993829;28;20494;-76
2022/03/17 15:00:53;;;;;;;39.77;29.50;;;12.40;99.90;;;;;;4993914;28;20970;-76
2022/03/17 15:03:20;;;;;;;43.20;31.27;;;12.40;99.90;;;;;;5000455;28;20486;-77
2022/03/17 15:05:48;;;;;;;45.77;31.93;;;12.30;99.90;;;;;;5013723;28;20566;-77
2022/03/17 15:08:14;;;;;;;45.57;31.93;;;12.30;99.90;;;;;;5012395;28;20454;-78
2022/03/17 15:10:43;;;;;;;43.00;31.23;;;12.30;99.90;;;;;;5012679;28;20459;-77
2022/03/17 15:13:09;;;;;;;44.47;32.40;;;12.30;99.90;;;;;;5013306;28;20454;-77
2022/03/17 15:15:36;;;;;;;45.90;32.53;;;12.30;99.90;;;;;;5013055;28;20994;-77
2022/03/17 15:18:03;;;;;;;45.83;32.53;;;12.30;99.90;;;;;;5013426;28;20537;-78
2022/03/17 15:20:30;;;;;;;43.97;32.10;;;12.30;99.90;;;;;;5013399;28;20542;-77
2022/03/17 15:23:00;;;;;;;48.83;30.90;;;12.30;99.90;;;;;;5011651;28;20782;-77
2022/03/17 15:25:27;;;;;;;45.63;30.93;;;12.20;99.90;;;;;;5013582;28;20920;-76
2022/03/17 15:30:42;;;;;;;48.00;34.30;;;12.30;99.90;;;;;;4994880;28;20271;-77
2022/03/17 15:33:10;;;;;;;47.00;32.47;;;12.40;99.90;;;;;;4993284;28;20970;-77
2022/03/17 15:35:40;;;;;;;44.50;31.13;;;12.30;99.90;;;;;;4994322;28;20503;-77
2022/03/17 15:38:07;;;;;;;42.50;31.60;;;12.30;99.90;;;;;;4993316;28;20466;-76
2022/03/17 15:40:36;;;;;;;48.50;31.63;;;12.30;99.90;;;;;;4994047;28;20825;-76
2022/03/17 15:43:06;;;;;;;44.60;31.73;;;12.30;99.90;;;;;;4993280;28;20891;-77
2022/03/17 15:45:34;;;;;;;46.67;33.07;;;12.30;99.90;;;;;;4993440;28;20987;-77
2022/03/17 15:48:01;;;;;;;48.67;33.13;;;12.30;99.90;;;;;;4993639;28;20495;-78
2022/03/17 15:50:28;;;;;;;46.90;32.53;;;12.20;99.90;;;;;;4993912;28;20858;-77
2022/03/17 15:52:55;;;;;;;47.20;32.40;;;12.20;99.90;;;;;;4992196;28;20547;-77
2022/03/17 15:55:22;;;;;;;47.20;33.50;;;12.20;99.90;;;;;;4992632;28;20883;-77
2022/03/17 15:57:52;;;;;;;49.27;32.43;;;12.20;99.90;;;;;;4992689;28;20466;-77
2022/03/17 16:00:20;;;;;;;48.10;32.33;;;12.20;99.90;;;;;;4993018;28;20522;-77
2022/03/17 16:02:48;;;;;;;51.50;32.97;;;12.20;99.90;;;;;;4992715;28;20586;-77
2022/03/17 16:05:15;;;;;;;45.43;32.00;;;12.20;99.90;;;;;;4992559;28;20920;-78
2022/03/17 16:07:42;;;;;;;44.27;32.60;;;12.20;99.90;;;;;;4992401;28;20895;-77
2022/03/17 16:15:40;;;;;;;47.23;35.03;;;12.10;99.90;;;;;;4992462;28;20471;-77
2022/03/17 16:18:07;;;;;;;52.57;35.37;;;12.10;99.90;;;;;;4992219;28;20451;-76
2022/03/17 16:20:35;;;;;;;51.77;35.40;;;12.10;99.90;;;;;;4992289;28;20534;-78
2022/03/17 16:23:04;;;;;;;48.90;34.53;;;12.10;99.90;;;;;;4992340;28;20495;-77
2022/03/17 16:25:31;;;;;;;52.43;35.47;;;12.10;99.90;;;;;;4992383;28;20976;-77
2022/03/17 16:28:00;;;;;;;45.93;33.03;;;12.10;99.90;;;;;;4992377;28;20468;-77
2022/03/17 16:30:27;;;;;;;51.93;36.23;;;12.10;99.90;;;;;;4992424;28;20452;-77
2022/03/17 16:32:59;;;;;;;55.00;35.17;;;12.10;99.90;;;;;;4992102;28;20455;-77
2022/03/17 16:35:26;;;;;;;47.43;34.50;;;12.10;99.90;;;;;;4992478;28;20480;-77
2022/03/17 16:37:53;;;;;;;47.77;35.07;;;12.10;99.90;;;;;;4992181;28;20455;-78
2022/03/17 16:40:20;;;;;;;55.17;34.60;;;12.10;99.90;;;;;;4992264;28;20936;-77
2022/03/17 16:42:47;;;;;;;51.30;36.07;;;12.10;99.90;;;;;;4992144;28;20462;-77
2022/03/17 16:45:15;;;;;;;48.70;33.67;;;12.10;99.90;;;;;;4992647;28;20834;-76
2022/03/17 16:47:43;;;;;;;49.37;34.80;;;12.10;99.90;;;;;;4991762;28;20459;-77
2022/03/17 16:50:13;;;;;;;53.80;36.87;;;12.00;99.90;;;;;;4992350;28;20551;-77
2022/03/17 16:52:44;;;;;;;48.70;35.20;;;12.00;99.90;;;;;;4992550;28;20452;-77
2022/03/17 16:55:12;;;;;;;52.57;35.13;;;12.00;99.90;;;;;;4992039;28;20837;-77
2022/03/17 16:57:39;;;;;;;52.33;35.37;;;12.00;99.90;;;;;;4991927;28;20488;-77
2022/03/17 17:00:10;;;;;;;48.97;34.40;;;12.00;99.90;;;;;;4991906;28;20526;-77
2022/03/17 17:02:38;;;;;;;48.73;33.50;;;12.00;99.90;;;;;;4992123;28;20960;-77
2022/03/17 17:05:06;;;;;;;49.97;35.43;;;11.90;99.90;;;;;;4992161;28;20557;-77
2022/03/17 17:07:36;;;;;;;46.43;34.70;;;11.90;99.90;;;;;;4991836;28;21010;-77
2022/03/17 17:10:03;;;;;;;52.63;35.00;;;11.90;99.90;;;;;;4992009;28;20464;-77
2022/03/17 17:12:31;;;;;;;50.50;35.40;;;11.90;99.90;;;;;;4991789;28;20456;-77
2022/03/17 17:14:58;;;;;;;47.60;34.20;;;11.90;99.90;;;;;;5017935;23;20479;-76
2022/03/17 17:17:27;;;;;;;53.00;35.50;;;11.90;99.90;;;;;;4976205;28;20551;-76
2022/03/17 17:19:54;;;;;;;47.80;35.10;;;11.90;99.90;;;;;;4976385;28;20461;-75
2022/03/17 17:22:21;;;;;;;50.00;35.93;;;11.90;99.90;;;;;;4975902;28;20504;-76
2022/03/17 17:33:02;;;;;;;48.80;35.27;;;11.80;99.90;;;;;;4956665;29;20513;-76
2022/03/17 17:35:30;;;;;;;48.33;35.27;;;11.70;99.90;;;;;;4956605;28;20477;-76
2022/03/17 17:37:57;;;;;;;51.63;33.67;;;11.70;99.90;;;;;;4956780;29;20461;-76
2022/03/17 17:40:25;;;;;;;50.67;34.40;;;11.60;99.90;;;;;;4956571;29;20461;-76
2022/03/17 17:42:52;;;;;;;49.10;32.67;;;11.60;99.90;;;;;;4956449;29;20873;-75
2022/03/17 17:45:22;;;;;;;47.87;34.33;;;11.60;99.90;;;;;;4956724;29;20503;-75
2022/03/17 17:47:49;;;;;;;48.20;32.93;;;11.60;99.90;;;;;;4956354;29;20460;-76
2022/03/17 17:50:20;;;;;;;47.00;33.70;;;11.50;99.90;;;;;;4956436;28;20528;-76
2022/03/17 17:52:46;;;;;;;49.27;34.40;;;11.50;99.90;;;;;;4956408;29;21001;-76
2022/03/17 17:55:14;;;;;;;52.73;34.50;;;11.50;99.90;;;;;;4956518;29;20502;-76
2022/03/17 17:57:43;;;;;;;48.60;33.30;;;11.50;99.90;;;;;;4956120;28;20448;-75
2022/03/17 18:00:13;;;;;;;48.10;34.20;;;11.50;99.90;;;;;;4956365;29;20466;-76
2022/03/17 18:02:40;;;;;;;52.00;33.87;;;11.40;99.90;;;;;;4956153;28;20868;-73
2022/03/17 18:05:11;;;;;;;51.60;35.37;;;11.30;99.90;;;;;;4956195;28;20494;-75
2022/03/17 18:07:38;;;;;;;54.07;35.50;;;11.30;99.90;;;;;;4956149;28;20473;-76